Time;durP1;ratioP1;P1;durP2;ratioP2;P2;SDS_P1;SDS_P2;PMS_P1;PMS_P2;Temp;Humidity;BMP_temperature;BMP_pressure;BME280_temperature;BME280_humidity;BME280_pressure;Samples;Min_cycle;Max_cycle;Signal;HPM_P1;HPM_P2
2023/06/24 00:00:15;;;;;;;7.70;4.77;;;19.50;60.20;;;;;;5037000;28;20456;-70
2023/06/24 00:02:45;;;;;;;4.37;3.10;;;19.40;61.10;;;;;;5036618;28;20435;-70
2023/06/24 00:05:13;;;;;;;5.83;3.70;;;19.40;61.60;;;;;;5037017;28;20802;-69
2023/06/24 00:07:44;;;;;;;5.80;4.10;;;19.40;62.00;;;;;;5036852;28;20438;-70
2023/06/24 00:10:13;;;;;;;4.70;3.90;;;19.50;61.80;;;;;;5036937;28;20555;-69
2023/06/24 00:12:41;;;;;;;5.40;3.70;;;19.50;61.50;;;;;;5036492;28;20440;-70
2023/06/24 00:15:10;;;;;;;4.43;3.33;;;19.50;61.60;;;;;;5036951;28;20434;-70
2023/06/24 00:17:37;;;;;;;6.40;3.97;;;19.50;61.50;;;;;;5036723;28;20469;-70
2023/06/24 00:20:07;;;;;;;4.43;3.67;;;19.50;60.00;;;;;;5036287;28;20918;-70
2023/06/24 00:22:36;;;;;;;5.40;3.67;;;19.50;60.80;;;;;;5036920;28;20876;-70
2023/06/24 00:25:08;;;;;;;5.17;3.47;;;19.50;60.70;;;;;;5036829;28;20483;-70
2023/06/24 00:27:35;;;;;;;4.03;2.73;;;19.50;60.20;;;;;;5036285;28;20850;-70
2023/06/24 00:30:02;;;;;;;5.63;3.77;;;19.50;60.80;;;;;;5036449;28;20469;-70
2023/06/24 00:32:31;;;;;;;5.60;3.87;;;19.40;61.10;;;;;;5035915;28;20951;-70
2023/06/24 00:34:59;;;;;;;6.10;4.23;;;19.50;62.30;;;;;;5036279;28;20775;-70
2023/06/24 00:37:27;;;;;;;4.80;3.60;;;19.40;63.70;;;;;;5035878;28;20491;-70
2023/06/24 00:39:55;;;;;;;4.93;3.30;;;19.40;64.20;;;;;;5036391;28;20441;-69
2023/06/24 00:42:26;;;;;;;5.20;3.77;;;19.30;64.80;;;;;;5036079;28;20460;-69
2023/06/24 00:44:53;;;;;;;4.73;3.47;;;19.30;64.30;;;;;;5035682;28;20957;-69
2023/06/24 00:47:26;;;;;;;5.93;4.00;;;19.20;63.90;;;;;;5035637;28;20435;-69
2023/06/24 00:49:53;;;;;;;5.20;3.87;;;19.00;65.20;;;;;;5035863;28;20525;-70
2023/06/24 00:52:20;;;;;;;6.80;4.30;;;18.80;66.30;;;;;;5035967;28;20839;-69
2023/06/24 00:54:47;;;;;;;5.13;3.80;;;18.60;68.10;;;;;;5035496;28;20495;-70
2023/06/24 00:57:18;;;;;;;6.80;4.40;;;18.60;68.30;;;;;;5035832;28;20832;-69
2023/06/24 00:59:46;;;;;;;9.17;3.70;;;18.50;70.20;;;;;;5035756;28;20431;-70
2023/06/24 01:02:13;;;;;;;6.70;4.00;;;18.50;71.10;;;;;;5035635;28;20499;-71
2023/06/24 01:04:43;;;;;;;5.53;4.00;;;18.50;71.50;;;;;;5035694;28;20441;-69
2023/06/24 01:07:11;;;;;;;6.40;4.33;;;18.40;70.90;;;;;;5035610;28;20598;-69
2023/06/24 01:09:38;;;;;;;5.67;4.10;;;18.30;71.70;;;;;;5035326;28;20466;-69
2023/06/24 01:12:06;;;;;;;8.53;5.17;;;18.30;72.70;;;;;;5035564;28;20511;-70
2023/06/24 01:14:35;;;;;;;5.87;4.37;;;18.20;73.30;;;;;;5035315;28;20984;-69
2023/06/24 01:17:10;;;;;;;5.53;4.23;;;18.10;73.60;;;;;;5035377;28;20433;-70
2023/06/24 01:19:59;;;;;;;6.73;4.70;;;18.00;74.70;;;;;;5035651;28;20423;-69
2023/06/24 01:22:49;;;;;;;8.70;4.07;;;18.00;75.40;;;;;;5035250;28;20428;-69
2023/06/24 01:25:34;;;;;;;6.40;4.33;;;18.00;75.40;;;;;;5034913;28;20421;-69
2023/06/24 01:28:20;;;;;;;6.87;4.67;;;18.00;75.40;;;;;;5035266;28;20467;-70
2023/06/24 01:31:07;;;;;;;5.80;4.00;;;17.80;75.70;;;;;;5035100;28;20500;-70
2023/06/24 01:33:43;;;;;;;5.23;4.20;;;17.80;76.50;;;;;;5035248;28;20435;-69
2023/06/24 01:36:13;;;;;;;5.23;4.00;;;17.70;76.50;;;;;;5034943;28;20468;-69
2023/06/24 01:38:47;;;;;;;6.17;4.63;;;17.70;76.80;;;;;;5035129;28;20428;-69
2023/06/24 01:41:17;;;;;;;7.67;4.70;;;17.80;76.50;;;;;;5034826;28;20442;-69
2023/06/24 01:43:51;;;;;;;6.10;4.60;;;17.80;76.60;;;;;;5034570;28;20992;-70
2023/06/24 01:46:22;;;;;;;6.07;4.40;;;17.80;77.40;;;;;;5034989;28;20423;-69
2023/06/24 01:48:53;;;;;;;5.70;4.23;;;17.90;76.20;;;;;;5034423;28;20436;-70
2023/06/24 01:51:27;;;;;;;7.43;4.63;;;17.80;76.80;;;;;;5035062;28;20464;-69
2023/06/24 01:54:02;;;;;;;5.87;4.53;;;17.90;76.40;;;;;;5034648;28;20427;-69
2023/06/24 01:56:31;;;;;;;5.43;4.17;;;17.90;76.10;;;;;;5034758;28;20890;-69
2023/06/24 01:59:01;;;;;;;5.40;4.37;;;17.90;76.70;;;;;;5034799;28;20435;-70
2023/06/24 02:01:30;;;;;;;4.80;3.90;;;17.90;76.30;;;;;;5034826;28;20444;-70
2023/06/24 02:04:01;;;;;;;4.90;3.80;;;17.80;76.70;;;;;;5034535;28;20423;-70
2023/06/24 02:06:30;;;;;;;9.30;4.67;;;17.80;77.10;;;;;;5034916;28;20455;-70
2023/06/24 02:08:59;;;;;;;7.10;5.10;;;17.80;77.10;;;;;;5034259;28;20436;-69
2023/06/24 02:11:31;;;;;;;6.37;4.03;;;17.80;77.50;;;;;;5034702;28;20436;-71
2023/06/24 02:14:02;;;;;;;5.80;4.57;;;17.80;78.50;;;;;;5034346;28;20911;-69
2023/06/24 02:16:31;;;;;;;5.37;3.90;;;17.80;77.50;;;;;;5034406;28;20770;-70
2023/06/24 02:19:01;;;;;;;6.47;4.83;;;17.90;77.70;;;;;;5034181;28;20477;-69
2023/06/24 02:21:30;;;;;;;5.97;3.97;;;17.90;78.00;;;;;;5034509;28;20475;-69
2023/06/24 02:24:02;;;;;;;5.80;4.23;;;17.90;78.20;;;;;;5034451;28;20425;-69
2023/06/24 02:26:29;;;;;;;7.73;5.00;;;18.00;78.30;;;;;;5034120;28;20421;-69
2023/06/24 02:28:58;;;;;;;6.13;4.07;;;18.00;78.20;;;;;;5034316;28;20432;-69
2023/06/24 02:31:25;;;;;;;8.67;4.40;;;18.00;78.30;;;;;;5034209;28;20431;-69
2023/06/24 02:33:52;;;;;;;5.47;3.70;;;18.00;78.90;;;;;;5034057;28;20440;-69
2023/06/24 02:36:21;;;;;;;6.03;4.40;;;18.00;78.70;;;;;;5033825;28;20433;-69
2023/06/24 02:38:53;;;;;;;7.07;3.60;;;18.00;78.60;;;;;;5034101;28;20822;-69
2023/06/24 02:41:20;;;;;;;7.07;4.60;;;18.00;78.70;;;;;;5033731;28;20497;-70
2023/06/24 02:43:51;;;;;;;5.50;3.93;;;18.10;79.00;;;;;;5034010;28;20820;-74
2023/06/24 02:46:20;;;;;;;7.43;4.70;;;18.00;79.50;;;;;;5033676;28;20436;-69
2023/06/24 02:48:49;;;;;;;6.50;3.67;;;18.00;79.50;;;;;;5033634;28;20440;-69
2023/06/24 02:51:17;;;;;;;4.87;4.37;;;18.10;79.00;;;;;;5033590;28;20494;-69
2023/06/24 02:53:47;;;;;;;6.43;4.40;;;18.10;78.50;;;;;;5034045;28;20416;-69
2023/06/24 02:56:20;;;;;;;4.83;3.60;;;18.10;79.40;;;;;;5033561;28;20423;-70
2023/06/24 02:58:48;;;;;;;5.30;4.10;;;18.10;80.00;;;;;;5032943;28;20472;-69
2023/06/24 03:01:24;;;;;;;5.20;4.30;;;18.10;80.40;;;;;;5033198;28;20500;-70
2023/06/24 03:03:52;;;;;;;5.77;4.20;;;18.20;80.40;;;;;;5033509;28;20428;-69
2023/06/24 03:06:26;;;;;;;5.60;4.00;;;18.20;79.80;;;;;;5033438;28;20433;-70
2023/06/24 03:08:59;;;;;;;6.20;4.90;;;18.20;78.80;;;;;;5033713;28;20432;-70
2023/06/24 03:11:28;;;;;;;6.67;4.70;;;18.10;78.40;;;;;;5033394;28;20459;-70
2023/06/24 03:13:55;;;;;;;4.50;3.53;;;18.10;78.90;;;;;;5033271;28;20515;-70
2023/06/24 03:16:22;;;;;;;6.60;4.60;;;18.20;79.60;;;;;;5033722;28;20436;-70
2023/06/24 03:18:50;;;;;;;4.70;3.47;;;18.10;80.10;;;;;;5033512;28;20433;-69
2023/06/24 03:21:18;;;;;;;5.60;3.87;;;18.20;80.40;;;;;;5033395;28;20773;-70
2023/06/24 03:23:45;;;;;;;5.60;3.97;;;18.20;80.50;;;;;;5033252;28;20491;-70
2023/06/24 03:26:13;;;;;;;5.90;4.17;;;18.20;80.20;;;;;;5033413;28;20793;-70
2023/06/24 03:28:44;;;;;;;5.30;4.33;;;18.20;79.80;;;;;;5033491;28;20423;-70
2023/06/24 03:31:11;;;;;;;6.30;4.10;;;18.20;79.80;;;;;;5033460;28;20427;-71
2023/06/24 03:33:55;;;;;;;6.17;4.47;;;18.20;79.60;;;;;;5033493;28;20803;-69
2023/06/24 03:36:24;;;;;;;6.07;3.63;;;18.20;79.50;;;;;;5033177;28;20474;-70
2023/06/24 03:38:55;;;;;;;5.90;4.03;;;18.20;79.70;;;;;;5033412;28;20795;-70
2023/06/24 03:41:24;;;;;;;5.90;4.53;;;18.20;79.90;;;;;;5032825;28;20471;-70
2023/06/24 03:43:52;;;;;;;5.90;4.20;;;18.10;79.00;;;;;;5033322;28;20506;-70
2023/06/24 03:46:19;;;;;;;6.07;4.37;;;18.20;78.60;;;;;;5033297;28;20503;-70
2023/06/24 03:48:48;;;;;;;5.00;3.70;;;18.10;78.80;;;;;;5033288;28;20558;-70
2023/06/24 03:51:15;;;;;;;5.67;4.33;;;18.10;79.80;;;;;;5033314;28;20435;-70
2023/06/24 03:53:44;;;;;;;7.23;5.20;;;18.10;79.50;;;;;;5033317;28;20421;-69
2023/06/24 03:56:11;;;;;;;6.10;4.13;;;18.10;79.40;;;;;;5033017;28;20988;-69
2023/06/24 03:58:43;;;;;;;6.13;4.67;;;18.00;79.60;;;;;;5033162;28;20428;-70
2023/06/24 04:01:10;;;;;;;9.20;4.13;;;18.00;79.80;;;;;;5033216;28;20494;-69
2023/06/24 04:03:39;;;;;;;5.27;3.60;;;18.00;80.20;;;;;;5033200;28;20499;-70
2023/06/24 04:06:06;;;;;;;4.60;3.47;;;18.00;79.70;;;;;;5032921;28;20435;-69
2023/06/24 04:08:39;;;;;;;5.67;4.30;;;17.90;79.90;;;;;;5033094;28;20433;-69
2023/06/24 04:11:08;;;;;;;5.83;4.23;;;17.80;80.10;;;;;;5034926;28;20431;-70
2023/06/24 04:13:39;;;;;;;6.40;4.10;;;17.80;80.80;;;;;;5036470;28;20930;-69
2023/06/24 04:16:11;;;;;;;5.80;4.47;;;17.90;80.50;;;;;;5036429;28;20420;-70
2023/06/24 04:18:39;;;;;;;7.40;4.87;;;18.00;80.20;;;;;;5036948;28;20420;-70
2023/06/24 04:21:07;;;;;;;6.27;4.23;;;18.00;80.50;;;;;;5036598;28;20476;-69
2023/06/24 04:23:36;;;;;;;5.60;3.60;;;18.00;81.30;;;;;;5036738;28;20416;-70
2023/06/24 04:26:03;;;;;;;7.37;4.27;;;18.00;80.20;;;;;;5036742;28;20429;-70
2023/06/24 04:28:30;;;;;;;6.00;3.80;;;18.00;80.50;;;;;;5036606;28;20820;-69
2023/06/24 04:30:57;;;;;;;5.83;3.90;;;18.10;79.90;;;;;;5036466;28;20840;-70
2023/06/24 04:33:26;;;;;;;5.80;4.13;;;18.10;80.10;;;;;;5036113;28;20489;-69
2023/06/24 04:35:53;;;;;;;4.43;3.53;;;18.10;80.80;;;;;;5036529;28;20440;-69
2023/06/24 04:38:22;;;;;;;7.20;4.40;;;18.10;80.90;;;;;;5036038;28;20444;-70
2023/06/24 04:40:54;;;;;;;6.03;4.67;;;18.10;81.10;;;;;;5036249;28;20472;-70
2023/06/24 04:43:27;;;;;;;6.50;3.97;;;18.10;80.90;;;;;;5035929;28;20464;-70
2023/06/24 04:45:56;;;;;;;8.00;4.47;;;18.10;81.20;;;;;;5035858;28;20917;-70
2023/06/24 04:48:25;;;;;;;6.50;4.60;;;18.10;81.10;;;;;;5036166;28;20525;-70
2023/06/24 04:50:55;;;;;;;7.40;4.33;;;18.10;80.80;;;;;;5035865;28;20936;-69
2023/06/24 04:53:25;;;;;;;5.77;4.20;;;18.20;80.80;;;;;;5035819;28;20461;-70
2023/06/24 04:55:54;;;;;;;5.00;3.83;;;18.10;80.40;;;;;;5036043;28;20435;-69
2023/06/24 04:58:26;;;;;;;5.93;4.23;;;18.10;80.80;;;;;;5035944;28;20474;-69
2023/06/24 05:00:54;;;;;;;5.17;3.50;;;18.20;80.30;;;;;;5036040;28;20542;-69
2023/06/24 05:03:21;;;;;;;6.60;4.80;;;18.20;80.20;;;;;;5035527;28;20433;-70
2023/06/24 05:05:49;;;;;;;6.60;3.30;;;18.30;80.00;;;;;;5035869;28;20431;-69
2023/06/24 05:08:16;;;;;;;5.63;4.27;;;18.30;80.30;;;;;;5035522;28;20515;-69
2023/06/24 05:10:43;;;;;;;6.00;3.70;;;18.30;79.90;;;;;;5035717;28;20436;-69
2023/06/24 05:13:10;;;;;;;6.60;4.63;;;18.30;80.00;;;;;;5035384;28;20962;-70
2023/06/24 05:15:37;;;;;;;6.23;4.33;;;18.40;80.30;;;;;;5035799;28;20429;-70
2023/06/24 05:18:04;;;;;;;6.27;4.50;;;18.50;80.10;;;;;;5035387;28;20929;-70
2023/06/24 05:20:31;;;;;;;5.17;4.13;;;18.60;80.00;;;;;;5035211;28;20986;-69
2023/06/24 05:23:00;;;;;;;5.30;3.93;;;18.60;79.60;;;;;;5034303;28;20490;-70
2023/06/24 05:25:27;;;;;;;7.20;4.13;;;18.60;78.80;;;;;;5035680;28;20427;-70
2023/06/24 05:27:54;;;;;;;5.07;3.90;;;18.60;77.80;;;;;;5035133;28;20969;-70
2023/06/24 05:30:21;;;;;;;5.60;3.93;;;18.60;78.20;;;;;;5034980;28;20472;-69
2023/06/24 05:32:48;;;;;;;6.73;4.87;;;18.70;78.70;;;;;;5032945;28;20973;-70
2023/06/24 05:35:15;;;;;;;7.67;5.80;;;18.80;78.40;;;;;;5034169;28;20436;-71
2023/06/24 05:37:42;;;;;;;4.70;3.83;;;18.90;78.10;;;;;;5034297;28;20472;-70
2023/06/24 05:40:12;;;;;;;5.80;4.80;;;19.00;77.50;;;;;;5034757;28;20433;-71
2023/06/24 05:42:39;;;;;;;4.97;3.40;;;19.00;77.30;;;;;;5034219;28;20780;-70
2023/06/24 05:45:07;;;;;;;5.77;4.53;;;19.10;77.50;;;;;;5034228;28;20487;-70
2023/06/24 05:47:37;;;;;;;5.50;3.90;;;19.20;75.20;;;;;;5035330;28;20916;-70
2023/06/24 05:50:06;;;;;;;6.30;4.30;;;19.00;75.20;;;;;;5073782;28;20463;-69
2023/06/24 05:52:49;;;;;;;5.27;3.93;;;19.00;75.30;;;;;;5074177;28;20432;-70
2023/06/24 05:56:02;;;;;;;;;;;;;;;;;;;;;
2023/06/24 05:58:36;;;;;;;5.40;4.60;;;19.10;74.90;;;;;;5074745;28;20418;-71
2023/06/24 06:01:18;;;;;;;8.13;4.20;;;19.00;75.00;;;;;;5073674;28;20904;-71
2023/06/24 06:03:46;;;;;;;4.83;4.00;;;19.00;75.10;;;;;;5074068;28;20427;-71
2023/06/24 06:06:18;;;;;;;4.10;3.50;;;19.10;75.80;;;;;;5074381;28;20432;-70
2023/06/24 06:08:50;;;;;;;9.40;3.53;;;19.20;75.70;;;;;;5074214;28;20420;-70
2023/06/24 06:11:20;;;;;;;4.53;3.53;;;19.30;75.20;;;;;;5075814;28;20456;-71
2023/06/24 06:13:47;;;;;;;5.83;3.70;;;19.40;75.80;;;;;;5074198;28;20522;-71
2023/06/24 06:16:17;;;;;;;7.67;4.40;;;19.50;75.30;;;;;;5073636;28;20436;-71
2023/06/24 06:19:05;;;;;;;5.87;4.90;;;19.50;72.70;;;;;;5075871;28;21034;-71
2023/06/24 06:21:35;;;;;;;7.30;4.45;;;19.50;73.00;;;;;;5073624;28;20531;-70
2023/06/24 06:24:12;;;;;;;4.20;3.20;;;19.50;73.90;;;;;;5074129;28;20650;-70
2023/06/24 06:26:49;;;;;;;5.27;4.57;;;19.50;72.90;;;;;;5074226;28;20458;-70
2023/06/24 06:29:30;;;;;;;6.63;3.97;;;19.50;73.60;;;;;;5074330;28;20501;-70
2023/06/24 06:32:04;;;;;;;5.10;4.00;;;19.60;73.80;;;;;;5074866;28;20544;-72
2023/06/24 06:34:36;;;;;;;4.97;3.50;;;19.70;74.30;;;;;;5075579;28;20511;-70
2023/06/24 06:37:09;;;;;;;4.90;4.07;;;19.70;73.60;;;;;;5074162;28;20813;-71
2023/06/24 06:39:36;;;;;;;4.50;3.90;;;19.80;73.50;;;;;;5073435;28;20419;-70
2023/06/24 06:42:04;;;;;;;7.40;4.47;;;20.00;73.10;;;;;;5072985;28;20518;-71
2023/06/24 06:44:32;;;;;;;6.47;3.80;;;20.10;73.50;;;;;;5073396;28;20436;-71
2023/06/24 06:47:03;;;;;;;6.80;4.10;;;20.20;73.90;;;;;;5073409;28;20493;-71
2023/06/24 06:49:30;;;;;;;12.80;3.80;;;20.30;73.60;;;;;;5073591;28;20478;-70
2023/06/24 06:51:57;;;;;;;4.00;3.03;;;20.50;71.50;;;;;;5073001;28;20496;-71
2023/06/24 06:54:26;;;;;;;5.00;4.20;;;20.60;70.30;;;;;;5073148;28;20428;-70
2023/06/24 06:57:01;;;;;;;5.13;3.13;;;20.70;69.70;;;;;;5073417;28;20438;-71
2023/06/24 06:59:30;;;;;;;5.50;4.10;;;20.70;69.50;;;;;;5073353;28;20774;-71
2023/06/24 07:02:02;;;;;;;4.93;3.93;;;20.90;69.60;;;;;;5072850;28;20475;-71
2023/06/24 07:04:30;;;;;;;5.80;4.23;;;20.90;69.00;;;;;;5072848;28;20413;-71
2023/06/24 07:06:59;;;;;;;5.63;4.10;;;21.00;69.60;;;;;;5073190;28;20539;-71
2023/06/24 07:09:26;;;;;;;5.07;3.67;;;21.10;69.40;;;;;;5073195;28;20489;-71
2023/06/24 07:11:53;;;;;;;6.63;4.20;;;21.20;68.60;;;;;;5072893;28;20431;-72
2023/06/24 07:14:20;;;;;;;6.70;3.93;;;21.20;67.40;;;;;;5072990;28;20827;-72
2023/06/24 07:16:49;;;;;;;4.53;3.20;;;21.30;67.50;;;;;;5073017;28;20496;-71
2023/06/24 07:19:16;;;;;;;6.20;4.30;;;21.30;64.60;;;;;;5073141;28;20432;-71
2023/06/24 07:21:43;;;;;;;5.57;3.50;;;21.30;63.20;;;;;;5072743;28;20476;-71
2023/06/24 07:24:10;;;;;;;5.50;4.07;;;21.30;63.90;;;;;;5072552;28;20461;-71
2023/06/24 07:26:37;;;;;;;4.73;3.67;;;21.40;64.70;;;;;;5072848;28;20478;-70
2023/06/24 07:29:07;;;;;;;6.10;3.43;;;21.40;66.50;;;;;;5073067;28;20435;-71
2023/06/24 07:31:35;;;;;;;6.70;4.40;;;21.40;66.50;;;;;;5072764;28;20524;-71
2023/06/24 07:34:03;;;;;;;5.50;3.83;;;21.50;66.40;;;;;;5072643;28;20473;-71
2023/06/24 07:36:30;;;;;;;5.03;3.53;;;21.50;66.70;;;;;;5073104;28;20497;-71
2023/06/24 07:38:57;;;;;;;8.50;4.33;;;21.60;66.90;;;;;;5072904;28;20513;-71
2023/06/24 07:41:24;;;;;;;5.43;3.87;;;21.70;67.00;;;;;;5072244;28;20507;-71
2023/06/24 07:43:56;;;;;;;6.23;4.37;;;21.70;66.60;;;;;;5072301;28;20425;-72
2023/06/24 07:46:23;;;;;;;7.30;3.80;;;21.80;65.70;;;;;;5075229;28;20478;-71
2023/06/24 07:48:50;;;;;;;5.20;3.87;;;21.90;66.40;;;;;;5076938;28;20425;-70
2023/06/24 07:51:18;;;;;;;7.47;4.20;;;22.00;65.80;;;;;;5076783;28;20429;-71
2023/06/24 07:53:46;;;;;;;4.63;3.87;;;22.00;64.90;;;;;;5076673;28;20738;-71
2023/06/24 07:56:18;;;;;;;6.63;4.30;;;22.10;64.20;;;;;;5076681;28;20440;-71
2023/06/24 07:58:45;;;;;;;7.60;4.43;;;22.20;63.10;;;;;;5076685;28;20446;-72
2023/06/24 08:01:12;;;;;;;6.07;4.20;;;22.20;61.10;;;;;;5076228;28;20950;-71
2023/06/24 08:03:39;;;;;;;5.97;3.80;;;22.20;61.50;;;;;;5076456;28;20461;-71
2023/06/24 08:06:08;;;;;;;4.97;3.70;;;22.30;61.20;;;;;;5076602;28;20448;-71
2023/06/24 08:08:36;;;;;;;5.50;3.77;;;22.40;60.30;;;;;;5076084;28;20934;-71
2023/06/24 08:11:04;;;;;;;7.60;4.30;;;22.50;59.60;;;;;;5076479;28;20447;-71
2023/06/24 08:13:32;;;;;;;4.67;3.53;;;22.60;59.60;;;;;;5076076;28;20434;-71
2023/06/24 08:16:02;;;;;;;5.10;3.50;;;22.80;59.10;;;;;;5076343;28;20465;-71
2023/06/24 08:18:29;;;;;;;5.30;3.80;;;23.00;58.80;;;;;;5076002;28;20487;-71
2023/06/24 08:20:57;;;;;;;4.07;2.80;;;23.10;55.80;;;;;;5076208;28;20434;-71
2023/06/24 08:23:24;;;;;;;4.27;3.00;;;23.30;55.00;;;;;;5076120;28;20520;-71
2023/06/24 08:25:52;;;;;;;4.10;2.63;;;23.40;54.00;;;;;;5076155;28;20826;-71
2023/06/24 08:28:19;;;;;;;5.10;3.20;;;23.50;53.10;;;;;;5076233;28;20855;-71
2023/06/24 08:30:46;;;;;;;4.57;3.10;;;23.60;51.10;;;;;;5075806;28;20491;-71
2023/06/24 08:33:13;;;;;;;5.13;3.40;;;23.70;51.80;;;;;;5076058;28;20438;-71
2023/06/24 08:35:40;;;;;;;5.43;3.50;;;23.80;50.60;;;;;;5069736;28;20492;-71
2023/06/24 08:38:07;;;;;;;3.50;2.77;;;23.90;50.80;;;;;;5055019;28;20512;-72
2023/06/24 08:40:35;;;;;;;4.20;2.80;;;24.10;50.70;;;;;;5055446;28;20904;-71
2023/06/24 08:43:04;;;;;;;4.30;3.30;;;24.20;50.80;;;;;;5055197;28;20496;-71
2023/06/24 08:45:31;;;;;;;4.50;3.00;;;24.40;52.20;;;;;;5055671;28;20528;-71
2023/06/24 08:48:00;;;;;;;4.10;2.80;;;24.70;51.50;;;;;;5055774;28;20450;-71
2023/06/24 08:50:32;;;;;;;4.13;2.67;;;24.90;50.10;;;;;;5056076;28;20435;-71
2023/06/24 08:53:01;;;;;;;3.93;2.70;;;25.10;49.00;;;;;;5055547;28;20807;-71
2023/06/24 08:55:29;;;;;;;5.93;3.60;;;25.30;48.40;;;;;;5055326;28;20433;-71
2023/06/24 08:57:56;;;;;;;4.37;3.23;;;25.40;47.70;;;;;;5054322;28;20459;-71
2023/06/24 09:00:24;;;;;;;5.27;2.57;;;25.60;48.30;;;;;;5055320;28;20910;-72
2023/06/24 09:02:53;;;;;;;3.73;2.50;;;25.60;46.00;;;;;;5054978;28;20480;-71
2023/06/24 09:05:22;;;;;;;4.00;2.80;;;25.70;46.30;;;;;;5055104;28;20487;-71
2023/06/24 09:07:50;;;;;;;4.00;2.60;;;25.70;44.90;;;;;;5055105;28;20432;-71
2023/06/24 09:10:31;;;;;;;3.60;2.50;;;25.80;44.50;;;;;;5055228;28;20502;-71
2023/06/24 09:12:58;;;;;;;5.20;2.70;;;25.80;45.70;;;;;;5055129;28;20427;-71
2023/06/24 09:15:31;;;;;;;3.80;2.50;;;25.90;43.20;;;;;;5054732;28;20436;-72
2023/06/24 09:17:58;;;;;;;4.37;3.00;;;25.90;43.50;;;;;;5054952;28;20424;-72
2023/06/24 09:20:31;;;;;;;6.13;3.00;;;25.90;44.30;;;;;;5055241;28;20491;-71
2023/06/24 09:23:02;;;;;;;6.60;3.03;;;25.90;44.40;;;;;;5054814;28;20461;-71
2023/06/24 09:25:30;;;;;;;4.30;3.20;;;25.90;43.90;;;;;;5055154;28;20417;-72
2023/06/24 09:28:00;;;;;;;4.70;3.37;;;26.00;43.80;;;;;;5054643;28;20501;-70
2023/06/24 09:30:34;;;;;;;3.90;2.80;;;26.10;43.00;;;;;;5054791;28;20428;-71
2023/06/24 09:33:01;;;;;;;5.23;3.23;;;26.20;42.30;;;;;;5054654;28;20465;-71
2023/06/24 09:35:28;;;;;;;4.90;3.27;;;26.20;41.60;;;;;;5054597;28;20512;-71
2023/06/24 09:37:56;;;;;;;6.30;3.30;;;26.10;41.70;;;;;;5054443;28;20913;-71
2023/06/24 09:40:26;;;;;;;6.03;2.67;;;26.10;42.00;;;;;;5054415;28;20437;-70
2023/06/24 09:42:55;;;;;;;6.03;2.93;;;26.10;41.90;;;;;;5054041;28;20483;-71
2023/06/24 09:45:24;;;;;;;4.57;2.57;;;26.10;41.90;;;;;;5054535;28;20432;-73
2023/06/24 09:47:53;;;;;;;7.00;3.47;;;26.20;42.10;;;;;;5054594;28;20461;-71
2023/06/24 09:50:20;;;;;;;5.43;2.70;;;26.30;40.00;;;;;;5054548;28;20433;-71
2023/06/24 09:52:48;;;;;;;4.03;2.93;;;26.30;39.90;;;;;;5054239;28;20476;-70
2023/06/24 09:55:18;;;;;;;3.60;2.70;;;26.30;40.90;;;;;;5054447;28;20465;-71
2023/06/24 09:57:48;;;;;;;5.10;2.73;;;26.30;42.20;;;;;;5054480;28;20468;-71
2023/06/24 10:00:17;;;;;;;4.97;2.43;;;26.40;40.40;;;;;;5054100;28;20463;-72
2023/06/24 10:02:45;;;;;;;3.33;2.40;;;26.40;40.90;;;;;;5054105;28;20518;-71
2023/06/24 10:05:14;;;;;;;5.27;3.00;;;26.40;39.60;;;;;;5054211;28;20508;-71
2023/06/24 10:07:42;;;;;;;3.63;2.47;;;26.40;40.60;;;;;;5053840;28;20438;-69
2023/06/24 10:10:10;;;;;;;4.90;2.97;;;26.50;41.70;;;;;;5053889;28;20452;-69
2023/06/24 10:12:37;;;;;;;3.90;2.73;;;26.60;39.50;;;;;;5052495;28;20443;-69
2023/06/24 10:15:05;;;;;;;3.93;3.20;;;26.70;38.60;;;;;;5053793;28;20471;-70
2023/06/24 10:17:33;;;;;;;4.90;2.93;;;26.70;39.00;;;;;;5053329;28;20440;-69
2023/06/24 10:20:04;;;;;;;4.53;2.93;;;26.70;40.20;;;;;;5053638;28;20918;-69
2023/06/24 10:22:32;;;;;;;4.00;2.90;;;26.80;40.70;;;;;;5053785;28;20610;-69
2023/06/24 10:25:06;;;;;;;4.27;2.47;;;26.90;41.00;;;;;;5053873;28;20457;-69
2023/06/24 10:27:42;;;;;;;4.90;2.97;;;27.00;40.60;;;;;;5054157;28;20414;-68
2023/06/24 10:30:19;;;;;;;4.90;2.80;;;27.20;39.90;;;;;;5053932;28;20421;-71
2023/06/24 10:32:46;;;;;;;4.77;3.00;;;27.30;40.30;;;;;;5053694;28;20509;-69
2023/06/24 10:35:29;;;;;;;5.77;3.90;;;27.40;39.70;;;;;;5053742;28;20794;-68
2023/06/24 10:37:59;;;;;;;3.60;2.57;;;27.50;37.70;;;;;;5053662;28;20786;-69
2023/06/24 10:40:50;;;;;;;3.60;2.63;;;27.40;38.00;;;;;;5053731;28;20815;-68
2023/06/24 10:43:33;;;;;;;4.60;3.00;;;27.40;38.00;;;;;;5050660;28;20566;-68
2023/06/24 10:46:00;;;;;;;4.00;2.83;;;27.30;38.30;;;;;;5053119;28;20421;-69
2023/06/24 10:48:28;;;;;;;4.03;2.90;;;27.30;37.60;;;;;;5053295;28;20441;-69
2023/06/24 10:50:55;;;;;;;4.07;3.40;;;27.20;37.70;;;;;;5053458;28;20472;-69
2023/06/24 10:53:24;;;;;;;5.30;3.70;;;27.10;38.40;;;;;;5053488;28;20433;-69
2023/06/24 10:55:51;;;;;;;5.23;3.43;;;27.00;39.50;;;;;;5053372;28;20469;-69
2023/06/24 10:58:18;;;;;;;4.23;2.90;;;26.90;39.20;;;;;;5053117;28;20441;-68
2023/06/24 11:00:46;;;;;;;4.50;3.10;;;26.80;38.50;;;;;;5053114;28;20468;-69
2023/06/24 11:03:14;;;;;;;4.50;2.90;;;26.80;39.10;;;;;;5052759;28;20992;-70
2023/06/24 11:05:42;;;;;;;7.13;3.40;;;26.90;39.40;;;;;;5052950;28;20923;-69
2023/06/24 11:08:09;;;;;;;4.90;2.67;;;27.00;39.90;;;;;;5052976;28;20433;-69
2023/06/24 11:10:45;;;;;;;4.90;3.03;;;27.20;38.90;;;;;;5053307;28;20518;-69
2023/06/24 11:13:12;;;;;;;5.30;2.30;;;27.30;37.20;;;;;;5053291;28;20417;-69
2023/06/24 11:15:40;;;;;;;4.20;2.87;;;27.40;36.80;;;;;;5053148;28;20460;-69
2023/06/24 11:18:09;;;;;;;4.20;2.63;;;27.60;37.10;;;;;;5053185;28;20825;-71
2023/06/24 11:20:38;;;;;;;4.03;2.63;;;27.70;36.50;;;;;;5052278;28;20435;-72
2023/06/24 11:23:09;;;;;;;4.70;2.80;;;27.70;35.40;;;;;;5053077;28;20465;-71
2023/06/24 11:25:41;;;;;;;4.90;3.10;;;27.80;35.70;;;;;;5052980;28;20421;-68
2023/06/24 11:28:15;;;;;;;3.90;2.97;;;27.90;35.30;;;;;;5052951;28;20417;-69
2023/06/24 11:30:42;;;;;;;3.70;2.73;;;27.90;36.00;;;;;;5052751;28;20461;-69
2023/06/24 11:33:09;;;;;;;7.93;3.40;;;28.00;35.90;;;;;;5052536;28;20487;-68
2023/06/24 11:35:37;;;;;;;4.93;3.23;;;28.00;34.90;;;;;;5052840;28;20437;-69
2023/06/24 11:38:04;;;;;;;4.20;2.93;;;28.10;34.80;;;;;;5053067;28;20434;-69
2023/06/24 11:40:33;;;;;;;3.33;2.47;;;28.00;34.90;;;;;;5053000;28;20491;-69
2023/06/24 11:43:01;;;;;;;4.47;3.20;;;27.80;33.50;;;;;;5052385;28;20483;-70
2023/06/24 11:45:32;;;;;;;5.40;3.63;;;27.60;33.60;;;;;;5052585;28;20425;-69
2023/06/24 11:48:07;;;;;;;4.10;3.10;;;27.50;34.20;;;;;;5052652;28;20884;-68
2023/06/24 11:50:37;;;;;;;5.10;3.47;;;27.40;34.10;;;;;;5052476;28;20413;-69
2023/06/24 11:53:04;;;;;;;3.93;2.60;;;27.40;33.30;;;;;;5053093;28;20504;-68
2023/06/24 11:55:32;;;;;;;4.30;3.03;;;27.30;34.70;;;;;;5052775;28;20437;-69
2023/06/24 11:58:01;;;;;;;3.50;2.80;;;27.30;34.20;;;;;;5052446;28;20483;-69
2023/06/24 12:00:32;;;;;;;4.77;3.10;;;27.20;33.90;;;;;;5052596;28;20439;-69
2023/06/24 12:03:01;;;;;;;4.70;3.30;;;27.00;33.80;;;;;;5052241;28;20468;-68
2023/06/24 12:05:29;;;;;;;3.53;2.47;;;26.90;33.70;;;;;;5052598;28;20483;-69
2023/06/24 12:08:01;;;;;;;4.20;3.00;;;26.90;34.60;;;;;;5052237;28;20463;-69
2023/06/24 12:10:29;;;;;;;6.30;4.03;;;26.80;35.10;;;;;;5052387;28;20457;-69
2023/06/24 12:12:58;;;;;;;4.27;3.40;;;26.80;35.30;;;;;;5052645;28;20433;-68
2023/06/24 12:15:25;;;;;;;4.20;3.07;;;26.80;34.70;;;;;;5052384;28;20435;-69
2023/06/24 12:17:53;;;;;;;4.27;2.60;;;26.80;35.20;;;;;;5052184;28;20912;-72
2023/06/24 12:20:21;;;;;;;4.30;3.33;;;27.00;34.70;;;;;;5052227;28;20500;-68
2023/06/24 12:22:49;;;;;;;4.43;3.10;;;27.00;34.50;;;;;;5052097;28;20966;-69
2023/06/24 12:25:16;;;;;;;3.83;2.70;;;27.00;34.00;;;;;;5052375;28;20449;-69
2023/06/24 12:27:44;;;;;;;4.20;3.00;;;27.10;34.20;;;;;;5052253;28;20468;-68
2023/06/24 12:30:12;;;;;;;4.47;2.77;;;27.10;34.70;;;;;;5052498;28;20491;-68
2023/06/24 12:32:39;;;;;;;3.43;2.60;;;27.10;34.80;;;;;;5054500;28;20441;-69
2023/06/24 12:35:09;;;;;;;4.57;3.20;;;27.10;34.10;;;;;;5055653;28;20474;-68
2023/06/24 12:37:36;;;;;;;3.37;2.60;;;26.90;33.10;;;;;;5056063;28;20468;-68
2023/06/24 12:40:04;;;;;;;5.43;3.10;;;26.80;33.60;;;;;;5055507;28;20465;-70
2023/06/24 12:42:31;;;;;;;5.43;3.50;;;26.80;34.80;;;;;;5055281;28;20527;-69
2023/06/24 12:44:58;;;;;;;5.13;3.70;;;26.80;34.50;;;;;;5055647;28;20469;-68
2023/06/24 12:47:25;;;;;;;6.33;2.80;;;26.80;34.30;;;;;;5055626;28;20439;-69
2023/06/24 12:49:52;;;;;;;4.33;2.90;;;26.80;34.80;;;;;;5055714;28;20461;-70
2023/06/24 12:52:21;;;;;;;4.43;2.50;;;26.80;34.00;;;;;;5055646;28;20429;-68
2023/06/24 12:54:48;;;;;;;3.80;3.00;;;26.80;33.80;;;;;;5055347;28;20936;-68
2023/06/24 12:57:15;;;;;;;6.30;2.90;;;26.80;34.30;;;;;;5055247;28;20433;-69
2023/06/24 12:59:42;;;;;;;3.50;2.33;;;26.80;34.90;;;;;;5055408;28;20483;-69